Time;durP1;ratioP1;P1;durP2;ratioP2;P2;SDS_P1;SDS_P2;PMS_P1;PMS_P2;Temp;Humidity;BMP_temperature;BMP_pressure;BME280_temperature;BME280_humidity;BME280_pressure;Samples;Min_cycle;Max_cycle;Signal;HPM_P1;HPM_P2
2021/07/18 07:03:34;;;;;;;6.13;4.63;;;;;;;27.13;44.96;96825.14;127733;1092;62707;-88
2021/07/18 07:06:04;;;;;;;5.83;4.93;;;;;;;27.19;44.63;96834.13;127610;1092;62586;-90
2021/07/18 07:08:37;;;;;;;6.60;5.00;;;;;;;27.20;44.78;96825.02;128041;1092;62593;-91
2021/07/18 07:18:33;;;;;;;6.03;5.00;;;;;;;27.15;44.68;96832.95;127592;1092;62533;-89
2021/07/18 07:22:08;;;;;;;5.10;4.60;;;;;;;27.13;44.71;96829.66;127610;1092;62636;-91
2021/07/18 07:25:06;;;;;;;;;;;;;;;;;;;;;
2021/07/18 07:27:58;;;;;;;;;;;;;;;;;;;;;
2021/07/18 07:30:40;;;;;;;5.20;4.23;;;;;;;27.19;45.05;96831.44;127832;1092;62552;-94
2021/07/18 07:33:15;;;;;;;6.13;4.70;;;;;;;27.27;44.87;96836.48;128006;1092;61889;-93
2021/07/18 07:35:46;;;;;;;5.13;4.53;;;;;;;27.32;44.84;96833.91;127938;1089;62556;-93
2021/07/18 07:38:14;;;;;;;6.40;5.10;;;;;;;27.39;44.71;96834.60;127441;1095;62546;-92
2021/07/18 07:40:46;;;;;;;6.47;4.70;;;;;;;27.45;44.52;96832.84;127331;1095;62620;-91
2021/07/18 07:43:21;;;;;;;6.60;4.83;;;;;;;27.44;44.47;96827.72;127733;1095;62544;-93
2021/07/18 07:45:48;;;;;;;5.17;4.60;;;;;;;27.57;44.75;96832.87;128069;1095;62729;-92
2021/07/18 07:48:19;;;;;;;4.80;4.40;;;;;;;27.62;44.75;96835.67;127525;1093;62587;-91
2021/07/18 07:50:47;;;;;;;5.55;4.90;;;;;;;27.66;44.73;96837.65;127376;1095;61767;-94
2021/07/18 07:58:55;;;;;;;;;;;;;;;;;;;;;
2021/07/18 08:01:47;;;;;;;5.40;4.90;;;;;;;27.84;44.55;96835.93;128301;1095;62559;-96
2021/07/18 08:04:20;;;;;;;6.45;4.90;;;;;;;27.86;44.26;96840.00;128259;1095;62644;-94
2021/07/18 08:25:19;;;;;;;;;;;;;;;;;;;;;
2021/07/18 08:34:32;;;;;;;5.60;5.10;;;;;;;28.21;43.63;96824.89;128822;1089;61258;31
2021/07/18 08:41:09;;;;;;;;;;;;;;;;;;;;;
2021/07/18 09:28:55;;;;;;;;;;;;;;;;;;;;;
2021/07/18 10:12:44;;;;;;;5.40;4.90;;;;;;;30.95;39.14;96789.73;112717;1092;61685;-94
2021/07/18 10:16:36;;;;;;;5.50;4.90;;;;;;;30.78;39.55;96784.44;127339;1097;62748;-96
2021/07/18 10:20:36;;;;;;;;;;;;;;;;;;;;;
2021/07/18 10:24:18;;;;;;;;;;;;;;;;;;;;;
2021/07/18 10:27:16;;;;;;;;;;;;;;;30.29;39.42;96781.77;126519;1101;62624;-96
2021/07/18 10:31:01;;;;;;;;;;;;;;;;;;;;;
2021/07/18 10:38:47;;;;;;;;;;;;;;;;;;;;;
2021/07/18 10:42:07;;;;;;;5.10;4.57;;;;;;;29.98;40.20;96782.42;127106;1095;63391;-94
2021/07/18 10:48:56;;;;;;;;;;;;;;;;;;;;;
2021/07/18 10:52:41;;;;;;;;;;;;;;;;;;;;;
2021/07/18 10:56:09;;;;;;;;;;;;;;;;;;;;;
2021/07/18 10:59:52;;;;;;;5.97;5.37;;;;;;;29.59;40.52;96760.91;127287;1095;62796;-94
2021/07/18 11:14:17;;;;;;;;;;;;;;;;;;;;;
2021/07/18 11:25:09;;;;;;;5.80;5.20;;;;;;;29.26;40.30;96746.42;126861;1101;62752;-95
2021/07/18 11:40:13;;;;;;;;;;;;;;;;;;;;;
2021/07/18 12:55:02;;;;;;;;;;;;;;;;;;;;;
2021/07/18 13:02:31;;;;;;;6.60;6.00;;;;;;;29.33;39.46;96652.84;126872;1101;62572;-96
2021/07/18 13:06:53;;;;;;;6.83;6.23;;;;;;;29.38;39.61;96647.52;126090;1108;61818;-94
2021/07/18 13:18:04;;;;;;;;;;;;;;;29.58;39.41;96646.17;125449;1114;62714;-94
2021/07/18 13:25:48;;;;;;;;;;;;;;;;;;;;;
2021/07/18 13:29:11;;;;;;;7.10;6.50;;;;;;;29.81;39.72;96629.78;125231;1117;62601;-94
2021/07/18 14:42:25;;;;;;;;;;;;;;;;;;;;;
2021/07/18 14:58:31;;;;;;;;;;;;;;;;;;;;;
2021/07/18 15:28:52;;;;;;;6.70;6.10;;;;;;;29.94;38.04;96551.22;127523;1098;62773;-95
2021/07/18 15:35:09;;;;;;;6.45;5.70;;;;;;;29.89;37.81;96556.57;127445;1098;62622;-95
2021/07/18 16:24:47;;;;;;;;;;;;;;;;;;;;;
2021/07/18 16:40:09;;;;;;;;;;;;;;;;;;;;;
2021/07/18 16:43:48;;;;;;;6.20;5.60;;;;;;;29.22;38.93;96561.48;127123;1098;62625;-94
2021/07/18 16:47:42;;;;;;;;;;;;;;;;;;;;;
2021/07/18 16:51:27;;;;;;;;;;;;;;;;;;;;;
2021/07/18 16:55:03;;;;;;;;;;;;;;;;;;;;;
2021/07/18 16:58:58;;;;;;;;;;;;;;;;;;;;;
2021/07/18 17:02:27;;;;;;;;;;;;;;;;;;;;;
2021/07/18 17:05:53;;;;;;;6.17;5.57;;;;;;;29.02;39.87;96554.75;127325;1101;62719;-96
2021/07/18 17:09:40;;;;;;;6.30;5.50;;;;;;;29.01;39.71;96557.70;126772;1101;63130;-94
2021/07/18 17:13:30;;;;;;;5.90;5.35;;;;;;;28.99;39.74;96567.91;126664;1100;62546;-96
2021/07/18 17:17:04;;;;;;;5.53;5.10;;;;;;;28.96;39.97;96563.83;126739;1101;62680;-95
2021/07/18 17:20:56;;;;;;;;;;;;;;;;;;;;;
2021/07/18 17:24:27;;;;;;;6.73;5.40;;;;;;;28.91;39.96;96564.54;126842;1098;62726;-95
2021/07/18 17:28:33;;;;;;;;;;;;;;;;;;;;;
2021/07/18 17:32:03;;;;;;;;;;;;;;;;;;;;;
2021/07/18 17:35:30;;;;;;;5.50;5.00;;;;;;;28.86;40.25;96564.47;126835;1098;62571;-96
2021/07/18 17:43:15;;;;;;;;;;;;;;;;;;;;;
2021/07/18 17:46:47;;;;;;;;;;;;;;;;;;;;;
2021/07/18 17:50:14;;;;;;;5.65;5.00;;;;;;;28.80;40.62;96564.66;127187;1098;62559;-93
2021/07/18 17:54:07;;;;;;;;;;;;;;;;;;;;;
2021/07/18 17:57:49;;;;;;;;;;;;;;;;;;;;;
2021/07/18 18:01:15;;;;;;;5.37;4.73;;;;;;;28.74;40.55;96566.45;126350;1101;62783;-94
2021/07/18 18:20:01;;;;;;;;;;;;;;;;;;;;;
2021/07/18 18:23:37;;;;;;;;;;;;;;;;;;;;;
2021/07/18 18:27:28;;;;;;;;;;;;;;;;;;;;;
2021/07/18 18:30:57;;;;;;;;;;;;;;;;;;;;;
2021/07/18 18:34:31;;;;;;;5.97;5.30;;;;;;;28.66;40.91;96623.34;125517;1108;63099;-93
2021/07/18 18:38:33;;;;;;;;;;;;;;;;;;;;;
2021/07/18 18:42:43;;;;;;;;;;;;;;;;;;;;;
2021/07/18 18:57:39;;;;;;;7.57;5.87;;;;;;;28.67;41.49;96608.84;126595;1105;62428;-96
2021/07/18 19:01:21;;;;;;;;;;;;;;;;;;;;;
2021/07/18 19:13:37;;;;;;;8.63;6.63;;;;;;;28.66;42.69;96747.03;127507;1095;62583;-95
2021/07/18 19:16:34;;;;;;;7.77;5.80;;;;;;;28.63;42.51;96726.81;128243;1092;62537;-93
2021/07/18 19:22:18;;;;;;;6.40;5.50;;;;;;;28.66;42.71;96940.63;128928;1092;61323;31
2021/07/18 19:24:53;;;;;;;6.43;5.80;;;;;;;28.67;42.54;96786.30;127908;1098;61663;-93
2021/07/18 19:27:21;;;;;;;6.67;5.37;;;;;;;28.67;42.63;96749.47;127974;1098;62374;-96
2021/07/18 19:30:18;;;;;;;7.18;5.73;;;;;;;28.69;42.41;96749.21;127831;1098;61878;-94
2021/07/18 19:33:06;;;;;;;6.70;5.70;;;;;;;28.70;42.38;96758.91;127416;1098;62623;-94
2021/07/18 19:35:41;;;;;;;6.23;5.63;;;;;;;28.70;42.55;96756.22;127427;1098;62629;-96
2021/07/18 19:38:19;;;;;;;7.10;6.00;;;;;;;28.70;42.35;96761.59;127536;1097;62668;-93
2021/07/18 19:44:17;;;;;;;6.80;5.87;;;;;;;28.66;42.56;96747.84;128282;1092;62623;-95
2021/07/18 19:49:41;;;;;;;;;;;;;;;;;;;;;
2021/07/18 19:52:18;;;;;;;6.03;5.13;;;;;;;28.60;42.39;96729.97;127629;1095;62467;-93
2021/07/18 19:54:46;;;;;;;6.30;5.70;;;;;;;28.60;42.26;96718.41;127109;1095;62652;-92
2021/07/18 19:57:13;;;;;;;6.27;5.67;;;;;;;28.56;42.54;96707.31;127121;1095;62711;-96
2021/07/18 19:59:42;;;;;;;6.00;5.48;;;;;;;28.54;42.38;96700.56;127309;1095;62677;-95
2021/07/18 20:02:30;;;;;;;6.90;5.95;;;;;;;28.51;42.57;96690.29;127360;1095;62585;-96
2021/07/18 20:10:27;;;;;;;6.30;5.70;;;;;;;28.40;42.73;96668.62;128583;1092;61574;-95
2021/07/18 20:13:04;;;;;;;5.95;5.40;;;;;;;28.39;42.68;96669.69;127330;1095;62625;-95
2021/07/18 20:15:34;;;;;;;6.40;5.83;;;;;;;28.38;42.77;96669.91;127213;1095;62626;-93
2021/07/18 20:18:42;;;;;;;;;;;;;;;;;;;;;
2021/07/18 20:27:14;;;;;;;6.95;5.05;;;;;;;28.29;42.76;96655.23;128035;1098;61240;-96
2021/07/18 20:32:39;;;;;;;6.50;5.87;;;;;;;28.26;42.91;96667.27;127674;1098;62642;-96
2021/07/18 20:35:07;;;;;;;6.10;5.50;;;;;;;28.26;42.77;96672.64;127516;1092;62602;-92
2021/07/18 20:37:34;;;;;;;6.40;5.57;;;;;;;28.25;42.89;96681.77;126713;1098;62933;-94
2021/07/18 20:40:02;;;;;;;6.05;5.30;;;;;;;28.23;42.73;96673.11;126753;1098;62626;-93
2021/07/18 20:42:29;;;;;;;5.87;5.27;;;;;;;28.21;42.76;96672.55;126777;1098;62612;-94
2021/07/18 20:44:59;;;;;;;6.80;5.75;;;;;;;28.19;43.01;96685.39;126815;1098;62663;-92
2021/07/18 20:47:27;;;;;;;5.80;5.30;;;;;;;28.18;42.86;96691.83;126697;1098;62771;-92
2021/07/18 20:49:55;;;;;;;6.07;5.47;;;;;;;28.15;42.92;96695.83;126796;1098;62643;-94
2021/07/18 20:52:23;;;;;;;5.63;5.13;;;;;;;28.14;42.82;96701.42;126986;1098;63038;-94
2021/07/18 20:54:50;;;;;;;5.87;5.27;;;;;;;28.11;43.19;96701.92;126963;1096;62583;-95
2021/07/18 20:57:36;;;;;;;6.23;5.30;;;;;;;28.10;42.89;96705.64;127082;1097;62629;-96
2021/07/18 21:00:05;;;;;;;6.05;5.15;;;;;;;28.08;43.42;96708.58;127158;1098;62732;-94
2021/07/18 21:02:33;;;;;;;5.70;5.20;;;;;;;28.08;43.33;96707.77;127306;1098;62543;-92
2021/07/18 21:05:00;;;;;;;5.93;5.20;;;;;;;28.08;43.23;96718.52;127239;1098;62663;-96
2021/07/18 21:07:28;;;;;;;6.20;5.60;;;;;;;28.06;43.40;96716.07;127419;1098;62667;-95
2021/07/18 21:09:58;;;;;;;6.17;5.50;;;;;;;28.05;43.30;96714.42;127627;1098;62684;-92
2021/07/18 21:12:46;;;;;;;6.23;4.90;;;;;;;28.05;43.34;96713.61;127184;1098;62729;-90
2021/07/18 21:16:03;;;;;;;;;;;;;;;;;;;;;
2021/07/18 21:19:24;;;;;;;5.80;5.20;;;;;;;27.98;43.49;96729.88;127020;1098;62546;-91
2021/07/18 21:22:35;;;;;;;5.73;5.17;;;;;;;27.95;43.52;96756.38;127080;1098;62617;-95
2021/07/18 21:26:06;;;;;;;6.87;4.90;;;;;;;27.93;43.86;96770.06;128120;1098;61714;-89
2021/07/18 21:28:57;;;;;;;5.70;4.90;;;;;;;27.84;44.00;96768.80;127484;1098;62758;-88
2021/07/18 21:31:27;;;;;;;5.97;4.83;;;;;;;27.89;44.38;96753.59;126914;1098;62595;-90
2021/07/18 21:34:37;;;;;;;5.80;4.80;;;;;;;27.84;44.30;96774.17;126999;1098;62559;-91
2021/07/18 21:38:06;;;;;;;5.20;4.47;;;;;;;27.69;44.78;96780.00;126790;1097;62562;-91
2021/07/18 21:41:39;;;;;;;5.00;4.00;;;;;;;27.58;44.67;96788.86;126874;1096;62621;-90
2021/07/18 21:45:10;;;;;;;5.17;4.30;;;;;;;27.43;45.23;96796.58;127027;1098;62786;-92
2021/07/18 21:48:43;;;;;;;5.87;4.40;;;;;;;27.34;45.32;96772.77;126909;1096;62652;-89
2021/07/18 21:52:08;;;;;;;5.67;4.57;;;;;;;27.33;45.91;96760.41;126846;1096;62611;-90
2021/07/18 21:55:43;;;;;;;5.33;4.80;;;;;;;27.31;46.03;96743.70;126766;1096;62681;-91
2021/07/18 21:58:53;;;;;;;5.43;4.87;;;;;;;27.30;46.10;96742.08;126612;1098;62610;-89
2021/07/18 22:02:25;;;;;;;5.33;4.83;;;;;;;27.32;46.17;96741.88;126653;1098;62619;-89
2021/07/18 22:06:01;;;;;;;6.53;5.17;;;;;;;27.32;46.36;96742.69;126752;1098;62623;-89
2021/07/18 22:09:24;;;;;;;5.23;4.60;;;;;;;27.34;46.68;96745.94;126711;1097;62626;-90
2021/07/18 22:12:57;;;;;;;5.63;4.70;;;;;;;27.36;47.21;96738.48;126677;1098;62687;-90
2021/07/18 22:16:31;;;;;;;5.37;4.87;;;;;;;27.38;46.92;96749.79;126694;1096;62576;-90
2021/07/18 22:19:47;;;;;;;6.00;4.90;;;;;;;27.36;47.36;96732.27;126596;1098;62715;-88
2021/07/18 22:22:57;;;;;;;6.37;5.10;;;;;;;27.34;47.38;96729.02;126719;1098;63083;-87
2021/07/18 22:25:53;;;;;;;6.93;5.20;;;;;;;27.32;47.61;96729.27;126955;1098;62594;-88
2021/07/18 22:29:30;;;;;;;;;;;;;;;;;;;;;
2021/07/18 22:32:51;;;;;;;6.90;4.93;;;;;;;27.33;47.74;96717.48;126987;1097;62635;-90
2021/07/18 22:36:28;;;;;;;;;;;;;;;;;;;;;
2021/07/18 22:39:59;;;;;;;;;;;;;;;;;;;;;
2021/07/18 22:43:41;;;;;;;5.67;5.00;;;;;;;27.38;47.64;96708.72;126586;1098;62626;-91
2021/07/18 22:47:10;;;;;;;5.57;4.73;;;;;;;27.37;48.25;96712.47;126676;1098;62641;-91
2021/07/18 22:50:40;;;;;;;5.75;4.75;;;;;;;27.36;48.37;96708.97;126695;1098;62598;-90
2021/07/18 22:54:25;;;;;;;;;;;;;;;;;;;;;
2021/07/18 22:58:07;;;;;;;;;;;;;;;;;;;;;
2021/07/18 23:01:27;;;;;;;6.17;5.40;;;;;;;27.34;48.45;96711.05;127018;1098;62623;-90
2021/07/18 23:04:59;;;;;;;5.90;5.30;;;;;;;27.35;48.57;96714.55;126894;1097;62565;-88
2021/07/18 23:08:31;;;;;;;5.67;5.17;;;;;;;27.35;48.94;96711.87;126662;1098;62672;-90
2021/07/18 23:12:06;;;;;;;5.40;4.77;;;;;;;27.37;48.94;96705.23;126723;1098;62767;-90
2021/07/18 23:15:55;;;;;;;;;;;;;;;;;;;;;
2021/07/18 23:19:04;;;;;;;6.98;5.05;;;;;;;27.38;49.05;96692.63;126627;1098;62566;-91
2021/07/18 23:22:01;;;;;;;6.07;5.37;;;;;;;27.37;48.75;96691.00;126651;1098;62616;-90
2021/07/18 23:25:11;;;;;;;5.70;5.10;;;;;;;27.36;48.88;96692.87;126771;1098;62614;-94
2021/07/18 23:29:16;;;;;;;;;;;;;;;;;;;;;
2021/07/18 23:32:48;;;;;;;;;;;;;;;;;;;;;
2021/07/18 23:39:52;;;;;;;5.90;5.30;;;;;;;27.32;49.14;96691.70;126689;1097;62625;-93
2021/07/18 23:43:43;;;;;;;5.40;4.90;;;;;;;27.32;49.15;96686.34;126705;1098;62629;-92
2021/07/18 23:47:33;;;;;;;6.57;4.90;;;;;;;27.33;49.54;96701.38;127807;1098;62777;-90
2021/07/18 23:51:17;;;;;;;;;;;;;;;;;;;;;
2021/07/18 23:54:37;;;;;;;6.35;5.60;;;;;;;27.36;49.57;96694.70;126627;1098;62603;-89
2021/07/18 23:58:40;;;;;;;;;;;;;;;;;;;;;
